Flight Track Log - Related Links

Times and Time Zones

All times are in EDT time to prevent confusion due to time zone crossing. See the EJA658 flight status page for this flight to view local times or setup timezone preferences in your user account.

Time Position Orientation Groundspeed Altitude Reporting Facility
EDT Latitude Longitude Course Direction KTS MPH feet Rate Location/Type
Sat 06:39:05 AM 39.9833 -75.8500 128° Southeast 175 201 1,700  Level Philadelphia TRACON
Sat 06:40:23 AM 39.9333 -75.7667 128° Southeast 255 293 5,800 3,087 Climbing Philadelphia TRACON
Sat 06:41:23 AM 39.8833 -75.7000 134° Southeast 271 312 8,800 2,700 Climbing Philadelphia TRACON
Sat 06:42:23 AM 39.8167 -75.6500 150° Southeast 277 319 11,200 1,600 Climbing Philadelphia TRACON
Sat 06:43:23 AM 39.7500 -75.5833 142° Southeast 310 357 12,000 400 Climbing Philadelphia TRACON
Sat 06:44:23 AM 39.6833 -75.5000 136° Southeast 326 375 12,000  Level Philadelphia TRACON
Sat 06:45:23 AM 39.6000 -75.4333 148° Southeast 340 391 12,000 -59 Level Philadelphia TRACON
Sat 06:46:05 AM 39.5656 -75.3897 136° Southeast 345 397 11,900 -59 Descending Washington Center
Sat 06:47:05 AM 39.4819 -75.3333 152° Southeast 353 406 11,900 458 Level Washington Center
Sat 06:48:03 AM 39.3861 -75.3472 186° South 329 379 12,800 1,322 Climbing Washington Center
Sat 06:49:03 AM 39.2925 -75.3664 189° South 329 379 14,500 1,550 Climbing Washington Center
Sat 06:50:03 AM 39.1925 -75.3853 188° South 354 407 15,900 700 Climbing Washington Center
Sat 06:51:03 AM 39.0883 -75.3992 186° South 367 422 15,900  Level Washington Center
Sat 06:52:02 AM 38.9861 -75.4181 188° South 373 429 15,900  Level Washington Center
Sat 06:53:05 AM 38.8819 -75.4317 186° South 373 429 15,900  Level Washington Center
Sat 06:54:03 AM 38.7797 -75.4478 187° South 378 435 15,900  Level Washington Center
Sat 06:55:05 AM 38.6819 -75.4881 198° South 378 435 15,900  Level Washington Center
Sat 06:56:05 AM 38.5900 -75.5492 207° Southwest 371 427 15,900  Level Washington Center
Sat 06:57:05 AM 38.5006 -75.6103 208° Southwest 371 427 15,900  Level Washington Center
Sat 06:58:04 AM 38.4086 -75.6658 205° Southwest 371 427 15,900 51 Level Washington Center
Sat 06:59:03 AM 38.3044 -75.7347 207° Southwest 380 437 16,000 100 Climbing Washington Center
Sat 07:00:04 AM 38.2147 -75.7925 207° Southwest 380 437 16,100 -101 Climbing Washington Center
Sat 07:01:02 AM 38.1228 -75.8558 208° Southwest 380 437 15,800 -800 Descending Washington Center
Sat 07:02:04 AM 38.0350 -75.9133 207° Southwest 372 428 14,500 -1,417 Descending Washington Center
Sat 07:03:09 AM 37.9431 -75.9736 207° Southwest 346 398 12,800 -1,513 Descending Washington Center
Sat 07:04:03 AM 37.8636 -76.0231 206° Southwest 355 409 11,500 -1,409 Descending Washington Center
Sat 07:05:04 AM 37.7822 -76.0778 208° Southwest 344 396 10,100 -744 Descending Washington Center
Sat 07:06:04 AM 37.7089 -76.1300 209° Southwest 344 396 10,000 -50 Descending Washington Center
Sat 07:07:03 AM 37.6128 -76.1869 205° Southwest 344 396 10,000  Level Washington Center
Sat 07:07:24 AM 37.5856 -76.2078 211° Southwest 349 402 10,000 -600 Level Washington Center
Sat 07:08:03 AM 37.5353 -76.2467 212° Southwest 344 396 9,400 -1,182 Descending Washington Center
Sat 07:08:30 AM 37.5081 -76.2725 217° Southwest 287 330 8,700 -1,500 Descending Washington Center
Sat 07:09:03 AM 37.4703 -76.3036 213° Southwest 314 361 7,900 -1,475 Descending Washington Center
Sat 07:09:31 AM 37.4450 -76.3294 219° Southwest 261 300 7,200 -1,475 Descending Washington Center
Sat 07:10:04 AM 37.4117 -76.3553 212° Southwest 283 326 6,400 -1,377 Descending Washington Center
Sat 07:10:32 AM 37.3886 -76.3811 222° Southwest 253 291 5,800 -1,475 Descending Washington Center
Sat 07:11:05 AM 37.3550 -76.4097 214° Southwest 265 305 4,900 -1,600 Descending Washington Center
Sat 07:11:32 AM 37.3297 -76.4381 222° Southwest 256 295 4,200 -1,400 Descending Washington Center
Sat 07:12:05 AM 37.3025 -76.4614 214° Southwest 260 299 3,500 -1,222 Descending Washington Center
Sat 07:12:26 AM 37.2856 -76.4794 220° Southwest 223 257 3,100 -1,100 Descending Washington Center
Sat 07:13:05 AM 37.2561 -76.5078 217° Southwest 237 273 2,400 -1,100 Descending Washington Center
Sat 07:13:26 AM 37.2372 -76.5258 217° Southwest 198 228 2,000 -578 Descending Washington Center
Sat 07:14:28 AM 37.1933 -76.5567 209° Southwest 183 211 1,600 -244 Descending Washington Center
Sat 07:15:29 AM 37.1431 -76.5714 193° South 161 185 1,500 -98 Descending Washington Center

Login

Don't have an account? Register now (free) for customized features, flight alerts, and more!